Time,TemperatureF,DewpointF,PressureIn,WindDirection,WindDirectionDegrees,WindSpeedMPH,WindSpeedGustMPH,Humidity,HourlyPrecipIn,Conditions,Clouds,dailyrainin,SoftwareType,DateUTC
2013-01-01 00:02:00,19.0,-99.9,-100.00,NNW,336,6.0,8.0,-999,0.00,,,0.00,,2013-01-01 06:02:00,
2013-01-01 00:12:00,18.0,-99.9,-100.00,NNW,342,7.0,11.0,-999,0.00,,,0.00,,2013-01-01 06:12:00,
2013-01-01 00:22:00,18.0,-99.9,-100.00,NNW,342,7.0,11.0,-999,0.00,,,0.00,,2013-01-01 06:22:00,
2013-01-01 00:33:00,17.0,-99.9,-100.00,NNW,334,7.0,9.0,-999,0.00,,,0.00,,2013-01-01 06:33:00,
2013-01-01 00:43:00,17.0,-99.9,-100.00,NNW,334,7.0,9.0,-999,0.00,,,0.00,,2013-01-01 06:43:00,
2013-01-01 00:53:00,17.0,-99.9,-100.00,NNW,334,7.0,9.0,-999,0.00,,,0.00,,2013-01-01 06:53:00,
2013-01-01 01:02:00,17.0,-99.9,-100.00,NNW,334,7.0,9.0,-999,0.00,,,0.00,,2013-01-01 07:02:00,
2013-01-01 01:12:00,17.0,-99.9,-100.00,NNW,339,5.0,7.0,-999,0.00,,,0.00,,2013-01-01 07:12:00,
2013-01-01 01:22:00,17.0,-99.9,-100.00,NNW,339,5.0,7.0,-999,0.00,,,0.00,,2013-01-01 07:22:00,
2013-01-01 01:32:00,17.0,-99.9,-100.00,NNW,339,5.0,7.0,-999,0.00,,,0.00,,2013-01-01 07:32:00,
2013-01-01 01:43:00,17.0,-99.9,-100.00,NNW,334,6.0,7.0,-999,0.00,,,0.00,,2013-01-01 07:43:00,
2013-01-01 01:53:00,17.0,-99.9,-100.00,NNW,334,6.0,7.0,-999,0.00,,,0.00,,2013-01-01 07:53:00,
2013-01-01 02:02:00,17.0,-99.9,-100.00,NNW,334,6.0,7.0,-999,0.00,,,0.00,,2013-01-01 08:02:00,
2013-01-01 02:12:00,16.0,-99.9,-100.00,NNW,338,5.0,7.0,-999,0.00,,,0.00,,2013-01-01 08:12:00,
2013-01-01 02:22:00,16.0,-99.9,-100.00,NNW,338,5.0,7.0,-999,0.00,,,0.00,,2013-01-01 08:22:00,
2013-01-01 02:32:00,16.0,-99.9,-100.00,NNW,338,5.0,7.0,-999,0.00,,,0.00,,2013-01-01 08:32:00,
2013-01-01 02:42:00,15.0,-99.9,-100.00,NNW,338,6.0,8.0,-999,0.00,,,0.00,,2013-01-01 08:42:00,
2013-01-01 02:54:00,15.0,-99.9,-100.00,NNW,338,6.0,8.0,-999,0.00,,,0.00,,2013-01-01 08:54:00,
2013-01-01 03:02:00,15.0,-99.9,-100.00,NNW,338,6.0,8.0,-999,0.00,,,0.00,,2013-01-01 09:02:00,
2013-01-01 03:12:00,15.0,-99.9,-100.00,NNW,328,4.0,8.0,-999,0.00,,,0.00,,2013-01-01 09:12:00,
2013-01-01 03:22:00,15.0,-99.9,-100.00,NNW,328,4.0,8.0,-999,0.00,,,0.00,,2013-01-01 09:22:00,
2013-01-01 03:32:00,15.0,-99.9,-100.00,NNW,332,7.0,8.0,-999,0.00,,,0.00,,2013-01-01 09:32:00,
2013-01-01 03:43:00,15.0,-99.9,-100.00,NNW,332,7.0,8.0,-999,0.00,,,0.00,,2013-01-01 09:43:00,
2013-01-01 03:53:00,15.0,-99.9,-100.00,NNW,332,7.0,8.0,-999,0.00,,,0.00,,2013-01-01 09:53:00,
2013-01-01 04:02:00,15.0,-99.9,-100.00,NNW,332,7.0,8.0,-999,0.00,,,0.00,,2013-01-01 10:02:00,
2013-01-01 04:12:00,14.0,-99.9,-100.00,NNW,344,5.0,6.0,-999,0.00,,,0.00,,2013-01-01 10:12:00,
2013-01-01 04:22:00,14.0,-99.9,-100.00,NNW,344,5.0,6.0,-999,0.00,,,0.00,,2013-01-01 10:22:00,
2013-01-01 04:33:00,14.0,-99.9,-100.00,NNW,344,5.0,6.0,-999,0.00,,,0.00,,2013-01-01 10:33:00,
2013-01-01 04:43:00,13.0,-99.9,-100.00,NNW,328,7.0,8.0,-999,0.00,,,0.00,,2013-01-01 10:43:00,
2013-01-01 04:53:00,13.0,-99.9,-100.00,NNW,328,7.0,8.0,-999,0.00,,,0.00,,2013-01-01 10:53:00,
2013-01-01 05:02:00,13.0,-99.9,-100.00,NNW,328,7.0,8.0,-999,0.00,,,0.00,,2013-01-01 11:02:00,
2013-01-01 05:12:00,12.0,-99.9,-100.00,NNW,337,5.0,6.0,-999,0.00,,,0.00,,2013-01-01 11:12:00,
2013-01-01 05:23:00,12.0,-99.9,-100.00,NNW,337,5.0,6.0,-999,0.00,,,0.00,,2013-01-01 11:23:00,
2013-01-01 05:33:00,11.0,-99.9,-100.00,NNW,331,7.0,9.0,-999,0.00,,,0.00,,2013-01-01 11:33:00,
2013-01-01 05:43:00,11.0,-99.9,-100.00,NNW,331,7.0,9.0,-999,0.00,,,0.00,,2013-01-01 11:43:00,
2013-01-01 05:53:00,11.0,-99.9,-100.00,NNW,331,7.0,9.0,-999,0.00,,,0.00,,2013-01-01 11:53:00,
2013-01-01 06:03:00,11.0,-99.9,-100.00,NNW,331,7.0,9.0,-999,0.00,,,0.00,,2013-01-01 12:03:00,
2013-01-01 06:12:00,11.0,-99.9,-100.00,NNW,335,6.0,7.0,-999,0.00,,,0.00,,2013-01-01 12:12:00,
2013-01-01 06:23:00,11.0,-99.9,-100.00,NNW,335,6.0,7.0,-999,0.00,,,0.00,,2013-01-01 12:23:00,
2013-01-01 06:33:00,10.0,-99.9,-100.00,NNW,332,4.0,6.0,-999,0.00,,,0.00,,2013-01-01 12:33:00,
2013-01-01 06:43:00,10.0,-99.9,-100.00,NNW,332,4.0,6.0,-999,0.00,,,0.00,,2013-01-01 12:43:00,
2013-01-01 06:53:00,10.0,-99.9,-100.00,NNW,332,4.0,6.0,-999,0.00,,,0.00,,2013-01-01 12:53:00,
2013-01-01 07:03:00,10.0,-99.9,-100.00,NNW,332,4.0,6.0,-999,0.00,,,0.00,,2013-01-01 13:03:00,
2013-01-01 07:12:00,10.0,-99.9,-100.00,NNW,337,5.0,6.0,-999,0.00,,,0.00,,2013-01-01 13:12:00,
2013-01-01 07:22:00,10.0,-99.9,-100.00,NNW,337,5.0,6.0,-999,0.00,,,0.00,,2013-01-01 13:22:00,
2013-01-01 07:33:00,10.0,-99.9,-100.00,NNW,337,5.0,6.0,-999,0.00,,,0.00,,2013-01-01 13:33:00,
2013-01-01 07:43:00,8.0,-99.9,-100.00,NNW,346,5.0,7.0,-999,0.00,,,0.00,,2013-01-01 13:43:00,
2013-01-01 07:53:00,8.0,-99.9,-100.00,NNW,346,5.0,7.0,-999,0.00,,,0.00,,2013-01-01 13:53:00,
2013-01-01 08:03:00,8.0,-99.9,-100.00,NNW,346,5.0,7.0,-999,0.00,,,0.00,,2013-01-01 14:03:00,
2013-01-01 08:12:00,8.0,-99.9,-100.00,North,359,2.0,4.0,-999,0.00,,,0.00,,2013-01-01 14:12:00,
2013-01-01 08:23:00,8.0,-99.9,-100.00,North,359,2.0,4.0,-999,0.00,,,0.00,,2013-01-01 14:23:00,
2013-01-01 08:33:00,8.0,-99.9,-100.00,North,359,2.0,4.0,-999,0.00,,,0.00,,2013-01-01 14:33:00,
2013-01-01 08:43:00,8.0,-99.9,-100.00,North,355,5.0,8.0,-999,0.00,,,0.00,,2013-01-01 14:43:00,
2013-01-01 08:53:00,8.0,-99.9,-100.00,North,355,5.0,8.0,-999,0.00,,,0.00,,2013-01-01 14:53:00,
2013-01-01 09:03:00,8.0,-99.9,-100.00,North,355,5.0,8.0,-999,0.00,,,0.00,,2013-01-01 15:03:00,
2013-01-01 09:13:00,9.0,-99.9,-100.00,North,353,6.0,11.0,-999,0.00,,,0.00,,2013-01-01 15:13:00,
2013-01-01 09:22:00,9.0,-99.9,-100.00,North,353,6.0,11.0,-999,0.00,,,0.00,,2013-01-01 15:22:00,
2013-01-01 09:33:00,9.0,-99.9,-100.00,North,356,5.0,8.0,-999,0.00,,,0.00,,2013-01-01 15:33:00,
2013-01-01 09:43:00,9.0,-99.9,-100.00,North,356,5.0,8.0,-999,0.00,,,0.00,,2013-01-01 15:43:00,
2013-01-01 09:53:00,9.0,-99.9,-100.00,North,356,5.0,8.0,-999,0.00,,,0.00,,2013-01-01 15:53:00,
2013-01-01 10:03:00,9.0,-99.9,-100.00,North,356,5.0,8.0,-999,0.00,,,0.00,,2013-01-01 16:03:00,
2013-01-01 10:12:00,11.0,-99.9,-100.00,North,5,3.0,4.0,-999,0.00,,,0.00,,2013-01-01 16:12:00,
2013-01-01 10:23:00,11.0,-99.9,-100.00,North,5,3.0,4.0,-999,0.00,,,0.00,,2013-01-01 16:23:00,
2013-01-01 10:33:00,12.0,-99.9,-100.00,NNW,329,5.0,8.0,-999,0.00,,,0.00,,2013-01-01 16:33:00,
2013-01-01 10:43:00,12.0,-99.9,-100.00,NNW,329,5.0,8.0,-999,0.00,,,0.00,,2013-01-01 16:43:00,
2013-01-01 10:53:00,12.0,-99.9,-100.00,NNW,329,5.0,8.0,-999,0.00,,,0.00,,2013-01-01 16:53:00,
2013-01-01 11:03:00,12.0,-99.9,-100.00,NNW,329,5.0,8.0,-999,0.00,,,0.00,,2013-01-01 17:03:00,
2013-01-01 11:12:00,14.0,-99.9,-100.00,WNW,296,2.0,3.0,-999,0.00,,,0.00,,2013-01-01 17:12:00,
2013-01-01 11:23:00,14.0,-99.9,-100.00,WNW,296,2.0,3.0,-999,0.00,,,0.00,,2013-01-01 17:23:00,
2013-01-01 11:33:00,15.0,-99.9,-100.00,East,82,3.0,4.0,-999,0.00,,,0.00,,2013-01-01 17:33:00,
2013-01-01 11:43:00,15.0,-99.9,-100.00,East,82,3.0,4.0,-999,0.00,,,0.00,,2013-01-01 17:43:00,
2013-01-01 11:53:00,15.0,-99.9,-100.00,East,82,3.0,4.0,-999,0.00,,,0.00,,2013-01-01 17:53:00,
2013-01-01 12:03:00,15.0,-99.9,-100.00,East,82,3.0,4.0,-999,0.00,,,0.00,,2013-01-01 18:03:00,
2013-01-01 12:13:00,17.0,-99.9,-100.00,NNW,330,1.0,2.0,-999,0.00,,,0.00,,2013-01-01 18:13:00,
2013-01-01 12:23:00,17.0,-99.9,-100.00,NNW,330,1.0,2.0,-999,0.00,,,0.00,,2013-01-01 18:23:00,
2013-01-01 12:33:00,20.0,-99.9,-100.00,WSW,255,5.0,8.0,-999,0.00,,,0.00,,2013-01-01 18:33:00,
2013-01-01 12:43:00,20.0,-99.9,-100.00,WSW,255,5.0,8.0,-999,0.00,,,0.00,,2013-01-01 18:43:00,
2013-01-01 12:53:00,20.0,-99.9,-100.00,WSW,255,5.0,8.0,-999,0.00,,,0.00,,2013-01-01 18:53:00,
2013-01-01 13:03:00,20.0,-99.9,-100.00,WSW,255,5.0,8.0,-999,0.00,,,0.00,,2013-01-01 19:03:00,
2013-01-01 13:12:00,19.0,-99.9,-100.00,West,272,6.0,9.0,-999,0.00,,,0.00,,2013-01-01 19:12:00,
2013-01-01 13:23:00,19.0,-99.9,-100.00,West,272,6.0,9.0,-999,0.00,,,0.00,,2013-01-01 19:23:00,
2013-01-01 13:33:00,19.0,-99.9,-100.00,West,272,6.0,9.0,-999,0.00,,,0.00,,2013-01-01 19:33:00,
2013-01-01 13:43:00,18.0,-99.9,-100.00,WNW,301,7.0,9.0,-999,0.00,,,0.00,,2013-01-01 19:43:00,
2013-01-01 13:53:00,18.0,-99.9,-100.00,WNW,301,7.0,9.0,-999,0.00,,,0.00,,2013-01-01 19:53:00,
2013-01-01 14:02:00,18.0,-99.9,-100.00,WNW,301,7.0,9.0,-999,0.00,,,0.00,,2013-01-01 20:02:00,
2013-01-01 14:13:00,18.0,-99.9,-100.00,NW,312,7.0,10.0,-999,0.00,,,0.00,,2013-01-01 20:13:00,
2013-01-01 14:23:00,18.0,-99.9,-100.00,NW,312,7.0,10.0,-999,0.00,,,0.00,,2013-01-01 20:23:00,
2013-01-01 14:33:00,18.0,-99.9,-100.00,NNW,332,8.0,11.0,-999,0.00,,,0.00,,2013-01-01 20:33:00,
2013-01-01 14:43:00,18.0,-99.9,-100.00,NNW,332,8.0,11.0,-999,0.00,,,0.00,,2013-01-01 20:43:00,
2013-01-01 14:53:00,18.0,-99.9,-100.00,NNW,332,8.0,11.0,-999,0.00,,,0.00,,2013-01-01 20:53:00,
2013-01-01 15:03:00,18.0,-99.9,-100.00,NNW,332,8.0,11.0,-999,0.00,,,0.00,,2013-01-01 21:03:00,
2013-01-01 15:13:00,18.0,-99.9,-100.00,NW,326,7.0,10.0,-999,0.00,,,0.00,,2013-01-01 21:13:00,
2013-01-01 15:23:00,18.0,-99.9,-100.00,NW,326,7.0,10.0,-999,0.00,,,0.00,,2013-01-01 21:23:00,
2013-01-01 15:33:00,19.0,-99.9,-100.00,NW,312,9.0,11.0,-999,0.00,,,0.00,,2013-01-01 21:33:00,
2013-01-01 15:43:00,19.0,-99.9,-100.00,NW,312,9.0,11.0,-999,0.00,,,0.00,,2013-01-01 21:43:00,
2013-01-01 15:53:00,19.0,-99.9,-100.00,NW,312,9.0,11.0,-999,0.00,,,0.00,,2013-01-01 21:53:00,
2013-01-01 16:03:00,19.0,-99.9,-100.00,NW,312,9.0,11.0,-999,0.00,,,0.00,,2013-01-01 22:03:00,
2013-01-01 16:13:00,19.0,-99.9,-100.00,NW,321,8.0,10.0,-999,0.00,,,0.00,,2013-01-01 22:13:00,
2013-01-01 16:23:00,19.0,-99.9,-100.00,NW,321,8.0,10.0,-999,0.00,,,0.00,,2013-01-01 22:23:00,
2013-01-01 16:33:00,19.0,-99.9,-100.00,NW,313,8.0,10.0,-999,0.00,,,0.00,,2013-01-01 22:33:00,
2013-01-01 16:43:00,19.0,-99.9,-100.00,NW,313,8.0,10.0,-999,0.00,,,0.00,,2013-01-01 22:43:00,
2013-01-01 16:53:00,19.0,-99.9,-100.00,NW,313,8.0,10.0,-999,0.00,,,0.00,,2013-01-01 22:53:00,
2013-01-01 17:03:00,19.0,-99.9,-100.00,NW,313,8.0,10.0,-999,0.00,,,0.00,,2013-01-01 23:03:00,
2013-01-01 17:13:00,19.0,-99.9,-100.00,WNW,293,5.0,7.0,-999,0.00,,,0.00,,2013-01-01 23:13:00,
2013-01-01 17:22:00,19.0,-99.9,-100.00,WNW,293,5.0,7.0,-999,0.00,,,0.00,,2013-01-01 23:22:00,
2013-01-01 17:33:00,18.0,-99.9,-100.00,NW,309,6.0,8.0,-999,0.00,,,0.00,,2013-01-01 23:33:00,
2013-01-01 17:43:00,18.0,-99.9,-100.00,NW,309,6.0,8.0,-999,0.00,,,0.00,,2013-01-01 23:43:00,
2013-01-01 17:53:00,18.0,-99.9,-100.00,NW,309,6.0,8.0,-999,0.00,,,0.00,,2013-01-01 23:53:00,
2013-01-01 18:03:00,18.0,-99.9,-100.00,NW,309,6.0,8.0,-999,0.00,,,0.00,,2013-01-02 00:03:00,
2013-01-01 18:12:00,18.0,-99.9,-100.00,WNW,295,6.0,7.0,-999,0.00,,,0.00,,2013-01-02 00:12:00,
2013-01-01 18:23:00,18.0,-99.9,-100.00,WNW,295,6.0,7.0,-999,0.00,,,0.00,,2013-01-02 00:23:00,
2013-01-01 18:33:00,18.0,-99.9,-100.00,WNW,295,6.0,7.0,-999,0.00,,,0.00,,2013-01-02 00:33:00,
2013-01-01 18:43:00,17.0,-99.9,-100.00,WNW,299,6.0,8.0,-999,0.00,,,0.00,,2013-01-02 00:43:00,
2013-01-01 18:53:00,17.0,-99.9,-100.00,WNW,299,6.0,8.0,-999,0.00,,,0.00,,2013-01-02 00:53:00,
2013-01-01 19:02:00,17.0,-99.9,-100.00,WNW,299,6.0,8.0,-999,0.00,,,0.00,,2013-01-02 01:02:00,
2013-01-01 19:12:00,17.0,-99.9,-100.00,WNW,288,6.0,7.0,-999,0.00,,,0.00,,2013-01-02 01:12:00,
2013-01-01 19:22:00,17.0,-99.9,-100.00,WNW,288,6.0,7.0,-999,0.00,,,0.00,,2013-01-02 01:22:00,
2013-01-01 19:33:00,16.0,-99.9,-100.00,WNW,297,5.0,7.0,-999,0.00,,,0.00,,2013-01-02 01:33:00,
2013-01-01 19:43:00,16.0,-99.9,-100.00,WNW,297,5.0,7.0,-999,0.00,,,0.00,,2013-01-02 01:43:00,
2013-01-01 19:53:00,16.0,-99.9,-100.00,WNW,297,5.0,7.0,-999,0.00,,,0.00,,2013-01-02 01:53:00,
2013-01-01 20:02:00,16.0,-99.9,-100.00,WNW,297,5.0,7.0,-999,0.00,,,0.00,,2013-01-02 02:02:00,
2013-01-01 20:12:00,14.0,-99.9,-100.00,WNW,295,4.0,5.0,-999,0.00,,,0.00,,2013-01-02 02:12:00,
2013-01-01 20:22:00,14.0,-99.9,-100.00,WNW,295,4.0,5.0,-999,0.00,,,0.00,,2013-01-02 02:22:00,
2013-01-01 20:33:00,12.0,-99.9,-100.00,NNE,29,1.0,1.0,-999,0.00,,,0.00,,2013-01-02 02:33:00,
2013-01-01 20:43:00,12.0,-99.9,-100.00,NNE,29,1.0,1.0,-999,0.00,,,0.00,,2013-01-02 02:43:00,
2013-01-01 20:53:00,12.0,-99.9,-100.00,NNE,29,1.0,1.0,-999,0.00,,,0.00,,2013-01-02 02:53:00,
2013-01-01 21:02:00,12.0,-99.9,-100.00,NNE,29,1.0,1.0,-999,0.00,,,0.00,,2013-01-02 03:02:00,
2013-01-01 21:12:00,11.0,-99.9,-100.00,North,4,0.0,1.0,-999,0.00,,,0.00,,2013-01-02 03:12:00,
2013-01-01 21:22:00,11.0,-99.9,-100.00,North,4,0.0,1.0,-999,0.00,,,0.00,,2013-01-02 03:22:00,
2013-01-01 21:33:00,12.0,-99.9,-100.00,North,8,0.0,0.0,-999,0.00,,,0.00,,2013-01-02 03:33:00,
2013-01-01 21:42:00,12.0,-99.9,-100.00,North,8,0.0,0.0,-999,0.00,,,0.00,,2013-01-02 03:42:00,
2013-01-01 21:53:00,12.0,-99.9,-100.00,North,8,0.0,0.0,-999,0.00,,,0.00,,2013-01-02 03:53:00,
2013-01-01 22:03:00,12.0,-99.9,-100.00,North,8,0.0,0.0,-999,0.00,,,0.00,,2013-01-02 04:03:00,
2013-01-01 22:12:00,14.0,-99.9,-100.00,West,265,2.0,3.0,-999,0.00,,,0.00,,2013-01-02 04:12:00,
2013-01-01 22:22:00,14.0,-99.9,-100.00,West,265,2.0,3.0,-999,0.00,,,0.00,,2013-01-02 04:22:00,
2013-01-01 22:33:00,14.0,-99.9,-100.00,WSW,257,4.0,5.0,-999,0.00,,,0.00,,2013-01-02 04:33:00,
2013-01-01 22:42:00,14.0,-99.9,-100.00,WSW,257,4.0,5.0,-999,0.00,,,0.00,,2013-01-02 04:42:00,
2013-01-01 22:53:00,14.0,-99.9,-100.00,WSW,257,4.0,5.0,-999,0.00,,,0.00,,2013-01-02 04:53:00,
2013-01-01 23:03:00,14.0,-99.9,-100.00,WSW,257,4.0,5.0,-999,0.00,,,0.00,,2013-01-02 05:03:00,
2013-01-01 23:12:00,13.0,-99.9,-100.00,SW,233,3.0,4.0,-999,0.00,,,0.00,,2013-01-02 05:12:00,
2013-01-01 23:23:00,13.0,-99.9,-100.00,SW,233,3.0,4.0,-999,0.00,,,0.00,,2013-01-02 05:23:00,
2013-01-01 23:33:00,12.0,-99.9,-100.00,WSW,240,1.0,2.0,-999,0.00,,,0.00,,2013-01-02 05:33:00,
2013-01-01 23:43:00,12.0,-99.9,-100.00,WSW,240,1.0,2.0,-999,0.00,,,0.00,,2013-01-02 05:43:00,
2013-01-01 23:53:00,12.0,-99.9,-100.00,WSW,240,1.0,2.0,-999,0.00,,,0.00,,2013-01-02 05:53:00,